createdAt,value
2023-05-09T00:00:20.018Z,61.39
2023-05-09T00:03:05.489Z,61.33
2023-05-09T00:05:51.285Z,61.30
2023-05-09T00:08:36.615Z,61.65
2023-05-09T00:11:22.418Z,61.24
2023-05-09T00:14:08.236Z,61.64
2023-05-09T00:16:53.770Z,61.43
2023-05-09T00:19:38.877Z,60.99
2023-05-09T00:22:24.325Z,60.94
2023-05-09T00:25:11.276Z,60.99
2023-05-09T00:27:56.716Z,61.28
2023-05-09T00:30:42.067Z,60.89
2023-05-09T00:33:27.258Z,61.52
2023-05-09T00:36:12.555Z,60.88
2023-05-09T00:38:57.762Z,61.78
2023-05-09T00:41:43.054Z,63.17
2023-05-09T00:44:28.373Z,62.48
2023-05-09T00:47:13.987Z,62.74
2023-05-09T00:49:59.452Z,62.92
2023-05-09T00:52:45.391Z,62.77
2023-05-09T00:55:30.752Z,63.29
2023-05-09T00:58:16.798Z,63.56
2023-05-09T01:01:02.388Z,63.06
2023-05-09T01:03:48.148Z,63.69
2023-05-09T01:06:41.438Z,63.00
2023-05-09T01:10:05.257Z,64.03
2023-05-09T01:13:09.323Z,63.97
2023-05-09T01:16:44.129Z,64.13
2023-05-09T01:19:50.744Z,64.06
2023-05-09T01:22:39.707Z,63.99
2023-05-09T01:26:04.396Z,64.48
2023-05-09T01:29:00.860Z,64.57
2023-05-09T01:31:48.227Z,64.29
2023-05-09T01:34:35.148Z,64.48
2023-05-09T01:37:24.667Z,64.57
2023-05-09T01:40:18.178Z,65.13
2023-05-09T01:43:08.930Z,65.31
2023-05-09T01:45:55.333Z,65.13
2023-05-09T01:48:42.525Z,64.93
2023-05-09T01:51:29.760Z,65.08
2023-05-09T01:54:17.145Z,65.19
2023-05-09T01:57:03.884Z,65.42
2023-05-09T01:59:50.657Z,65.66
2023-05-09T02:02:37.967Z,65.46
2023-05-09T02:05:27.918Z,66.14
2023-05-09T02:08:15.033Z,66.29
2023-05-09T02:11:00.469Z,66.25
2023-05-09T02:13:46.308Z,65.93
2023-05-09T02:16:32.740Z,66.25
2023-05-09T02:19:18.136Z,66.12
2023-05-09T02:22:03.780Z,65.97
2023-05-09T02:24:50.004Z,66.48
2023-05-09T02:27:36.932Z,66.84
2023-05-09T02:30:24.886Z,67.58
2023-05-09T02:33:12.497Z,67.51
2023-05-09T02:35:58.206Z,67.78
2023-05-09T02:38:44.973Z,67.46
2023-05-09T02:41:30.405Z,68.01
2023-05-09T02:44:16.121Z,68.04
2023-05-09T02:47:03.090Z,68.63
2023-05-09T02:49:48.388Z,68.18
2023-05-09T02:52:34.760Z,67.68
2023-05-09T02:55:20.209Z,67.64
2023-05-09T02:58:13.556Z,68.01
2023-05-09T03:01:00.608Z,67.47
2023-05-09T03:03:46.101Z,67.13
2023-05-09T03:06:31.824Z,66.92
2023-05-09T03:09:17.607Z,67.50
2023-05-09T03:12:02.989Z,67.49
2023-05-09T03:14:48.582Z,67.75
2023-05-09T03:17:34.520Z,69.36
2023-05-09T03:20:20.282Z,68.88
2023-05-09T03:23:05.745Z,69.05
2023-05-09T03:25:51.265Z,68.91
2023-05-09T03:28:38.528Z,68.69
2023-05-09T03:31:25.642Z,70.18
2023-05-09T03:34:10.843Z,69.77
2023-05-09T03:36:57.216Z,69.81
2023-05-09T03:39:43.270Z,70.71
2023-05-09T03:42:28.595Z,70.48
2023-05-09T03:45:17.889Z,69.98
2023-05-09T03:48:05.426Z,70.29
2023-05-09T03:50:50.611Z,70.85
2023-05-09T03:53:36.318Z,70.85
2023-05-09T03:56:21.933Z,70.43
2023-05-09T03:59:09.733Z,71.80
2023-05-09T04:01:55.424Z,70.81
2023-05-09T04:04:43.903Z,70.67
2023-05-09T04:07:30.022Z,69.54
2023-05-09T04:10:15.485Z,69.31
2023-05-09T04:13:01.260Z,70.84
2023-05-09T04:15:47.357Z,70.64
2023-05-09T04:18:33.021Z,69.94
2023-05-09T04:21:19.076Z,71.17
2023-05-09T04:24:07.764Z,69.83
2023-05-09T04:27:04.945Z,70.54
2023-05-09T04:29:50.465Z,68.82
2023-05-09T04:32:36.068Z,68.57
2023-05-09T04:35:22.500Z,67.33
2023-05-09T04:38:10.517Z,68.72
2023-05-09T04:40:56.329Z,66.80
2023-05-09T04:43:44.408Z,66.39
2023-05-09T04:46:29.895Z,69.10
2023-05-09T04:49:15.925Z,64.43
2023-05-09T04:52:01.048Z,61.22
2023-05-09T04:54:46.674Z,60.63
2023-05-09T04:57:34.544Z,62.47
2023-05-09T05:00:22.049Z,61.19
2023-05-09T05:03:07.843Z,61.09
2023-05-09T05:05:53.696Z,61.61
2023-05-09T05:08:39.517Z,61.44
2023-05-09T05:11:24.903Z,64.01
2023-05-09T05:14:10.790Z,64.42
2023-05-09T05:16:56.258Z,65.04
2023-05-09T05:19:42.389Z,64.70
2023-05-09T05:22:27.787Z,66.40
2023-05-09T05:25:13.533Z,65.30
2023-05-09T05:28:00.652Z,64.83
2023-05-09T05:30:46.062Z,65.49
2023-05-09T05:33:31.626Z,64.50
2023-05-09T05:36:17.624Z,63.20
2023-05-09T05:39:03.345Z,63.08
2023-05-09T05:41:48.952Z,63.53
2023-05-09T05:44:35.107Z,63.14
2023-05-09T05:47:20.689Z,62.96
2023-05-09T05:50:07.103Z,61.70
2023-05-09T05:52:54.324Z,61.44
2023-05-09T05:55:41.800Z,59.79
2023-05-09T05:58:27.476Z,60.82
2023-05-09T06:01:15.445Z,59.11
2023-05-09T06:04:00.753Z,61.04
2023-05-09T06:06:49.146Z,59.27
2023-05-09T06:09:35.169Z,59.46
2023-05-09T06:12:20.554Z,59.28
2023-05-09T06:15:06.898Z,57.72
2023-05-09T06:17:56.235Z,55.86
2023-05-09T06:20:41.673Z,56.94
2023-05-09T06:23:27.652Z,58.23
2023-05-09T06:26:13.427Z,57.00
2023-05-09T06:28:59.172Z,56.14
2023-05-09T06:31:44.522Z,57.51
2023-05-09T06:34:30.340Z,55.59
2023-05-09T06:37:15.646Z,55.06
2023-05-09T06:40:01.366Z,54.81
2023-05-09T06:42:47.140Z,55.50
2023-05-09T06:45:33.424Z,55.12
2023-05-09T06:48:19.307Z,56.30
2023-05-09T06:51:04.606Z,55.64
2023-05-09T06:53:50.099Z,53.36
2023-05-09T06:56:36.576Z,52.92
2023-05-09T06:59:22.028Z,54.05
2023-05-09T07:02:07.516Z,54.90
2023-05-09T07:04:53.009Z,53.16
2023-05-09T07:07:38.360Z,53.70
2023-05-09T07:10:23.890Z,52.75
2023-05-09T07:13:09.523Z,52.52
2023-05-09T07:15:54.992Z,54.08
2023-05-09T07:18:40.179Z,52.70
2023-05-09T07:21:25.316Z,52.99
2023-05-09T07:24:10.604Z,50.32
2023-05-09T07:26:55.684Z,51.57
2023-05-09T07:29:41.420Z,52.44
2023-05-09T07:32:26.931Z,52.10
2023-05-09T07:35:12.663Z,50.77
2023-05-09T07:37:57.943Z,47.97
2023-05-09T07:40:43.136Z,50.37
2023-05-09T07:43:28.622Z,52.51
2023-05-09T07:46:13.860Z,47.67
2023-05-09T07:48:59.365Z,49.36
2023-05-09T07:51:45.097Z,50.65
2023-05-09T07:54:30.072Z,50.88
2023-05-09T07:57:15.652Z,47.90
2023-05-09T08:00:00.812Z,48.54
2023-05-09T08:02:46.177Z,48.70
2023-05-09T08:05:31.876Z,46.41
2023-05-09T08:08:17.457Z,46.57
2023-05-09T08:11:02.948Z,46.87
2023-05-09T08:13:48.479Z,45.50
2023-05-09T08:16:33.596Z,46.18
2023-05-09T08:19:19.117Z,48.87
2023-05-09T08:22:04.599Z,49.05
2023-05-09T08:24:50.345Z,47.40
2023-05-09T08:27:35.515Z,45.75
2023-05-09T08:30:21.122Z,44.52
2023-05-09T08:33:06.561Z,50.24
2023-05-09T08:35:53.441Z,45.83
2023-05-09T08:38:38.642Z,48.81
2023-05-09T08:41:27.329Z,45.23
2023-05-09T08:44:13.236Z,47.23
2023-05-09T08:47:00.967Z,46.12
2023-05-09T08:49:46.212Z,46.13
2023-05-09T08:52:32.969Z,44.51
2023-05-09T08:55:18.981Z,44.78
2023-05-09T08:58:04.766Z,48.48
2023-05-09T09:00:50.553Z,47.01
2023-05-09T09:03:37.576Z,44.83
2023-05-09T09:06:23.424Z,42.77
2023-05-09T09:09:09.184Z,45.24
2023-05-09T09:11:54.511Z,43.92
2023-05-09T09:14:46.397Z,42.94
2023-05-09T09:17:33.312Z,43.44
2023-05-09T09:20:23.394Z,41.07
2023-05-09T09:23:09.800Z,43.45
2023-05-09T09:26:04.408Z,39.60
2023-05-09T09:28:49.520Z,40.46
2023-05-09T09:31:34.878Z,41.04
2023-05-09T09:34:22.557Z,41.14
2023-05-09T09:37:07.775Z,40.54
2023-05-09T09:39:56.836Z,39.47
2023-05-09T09:42:47.560Z,41.11
2023-05-09T09:45:32.718Z,40.13
2023-05-09T09:48:18.106Z,38.48
2023-05-09T09:51:12.177Z,38.59
2023-05-09T09:53:57.831Z,38.79
2023-05-09T09:56:45.182Z,38.75
2023-05-09T09:59:30.752Z,39.09
2023-05-09T10:02:16.185Z,43.11
2023-05-09T10:05:07.867Z,39.62
2023-05-09T10:07:59.624Z,39.48
2023-05-09T10:10:45.084Z,40.06
2023-05-09T10:13:30.835Z,38.70
2023-05-09T10:16:16.250Z,38.34
2023-05-09T10:19:02.152Z,39.71
2023-05-09T10:21:50.653Z,37.52
2023-05-09T10:24:51.237Z,40.48
2023-05-09T10:27:38.288Z,41.19
2023-05-09T10:30:31.505Z,38.36
2023-05-09T10:33:24.348Z,37.77
2023-05-09T10:36:10.553Z,39.89
2023-05-09T10:38:56.120Z,39.64
2023-05-09T10:41:41.864Z,36.92
2023-05-09T10:44:27.770Z,36.54
2023-05-09T10:47:13.984Z,36.94
2023-05-09T10:49:59.750Z,38.18
2023-05-09T10:53:04.505Z,38.60
2023-05-09T10:56:00.973Z,37.68
2023-05-09T10:58:47.935Z,37.70
2023-05-09T11:01:36.152Z,36.41
2023-05-09T11:04:23.934Z,36.79
2023-05-09T11:07:27.046Z,37.77
2023-05-09T11:10:17.847Z,38.64
2023-05-09T11:13:03.152Z,38.19
2023-05-09T11:16:04.665Z,38.38
2023-05-09T11:18:52.475Z,36.31
2023-05-09T11:21:39.890Z,38.42
2023-05-09T11:24:25.375Z,37.96
2023-05-09T11:27:20.566Z,36.31
2023-05-09T11:30:07.572Z,37.21
2023-05-09T11:32:54.869Z,36.77
2023-05-09T11:35:44.135Z,37.63
2023-05-09T11:38:41.374Z,35.03
2023-05-09T11:41:27.592Z,36.82
2023-05-09T11:44:21.005Z,38.01
2023-05-09T11:47:06.519Z,38.50
2023-05-09T11:49:53.237Z,36.36
2023-05-09T11:52:40.131Z,35.23
2023-05-09T11:55:25.844Z,35.10
2023-05-09T11:58:12.057Z,34.58
2023-05-09T12:00:57.660Z,34.07
2023-05-09T12:03:46.554Z,34.90
2023-05-09T12:06:32.350Z,33.53
2023-05-09T12:09:19.634Z,35.77
2023-05-09T12:12:12.642Z,35.36
2023-05-09T12:15:02.453Z,37.60
2023-05-09T12:17:50.358Z,38.39
2023-05-09T12:20:41.419Z,36.97
2023-05-09T12:23:26.680Z,38.21
2023-05-09T12:26:12.478Z,37.05
2023-05-09T12:28:58.138Z,36.24
2023-05-09T12:31:44.158Z,33.41
2023-05-09T12:34:29.391Z,36.73
2023-05-09T12:37:16.543Z,34.94
2023-05-09T12:40:08.546Z,32.59
2023-05-09T12:42:53.965Z,33.13
2023-05-09T12:45:39.069Z,32.45
2023-05-09T12:48:25.665Z,36.11
2023-05-09T12:51:11.121Z,37.35
2023-05-09T12:54:02.883Z,34.15
2023-05-09T12:56:48.173Z,33.18
2023-05-09T12:59:33.724Z,34.12
2023-05-09T13:02:19.129Z,36.87
2023-05-09T13:05:08.605Z,36.43
2023-05-09T13:07:56.954Z,37.73
2023-05-09T13:10:42.510Z,34.63
2023-05-09T13:13:28.669Z,37.13
2023-05-09T13:16:15.893Z,35.06
2023-05-09T13:19:03.197Z,33.42
2023-05-09T13:21:48.780Z,35.48
2023-05-09T13:24:33.993Z,36.93
2023-05-09T13:27:19.288Z,35.10
2023-05-09T13:30:06.008Z,35.61
2023-05-09T13:32:51.267Z,36.31
2023-05-09T13:35:36.506Z,36.91
2023-05-09T13:38:22.444Z,35.61
2023-05-09T13:41:07.839Z,37.36
2023-05-09T13:43:53.324Z,38.29
2023-05-09T13:46:38.854Z,36.86
2023-05-09T13:49:24.703Z,38.24
2023-05-09T13:52:09.967Z,37.81
2023-05-09T13:54:55.273Z,37.77
2023-05-09T13:57:40.348Z,37.03
2023-05-09T14:00:25.714Z,36.80
2023-05-09T14:03:11.037Z,35.45
2023-05-09T14:05:56.408Z,35.42
2023-05-09T14:08:41.798Z,36.65
2023-05-09T14:11:27.060Z,36.26
2023-05-09T14:14:11.934Z,36.28
2023-05-09T14:16:57.192Z,37.64
2023-05-09T14:19:42.580Z,35.77
2023-05-09T14:22:28.308Z,35.54
2023-05-09T14:25:13.987Z,37.57
2023-05-09T14:27:59.277Z,37.69
2023-05-09T14:30:44.480Z,36.12
2023-05-09T14:33:29.716Z,38.81
2023-05-09T14:36:15.181Z,37.19
2023-05-09T14:39:00.670Z,36.20
2023-05-09T14:41:46.142Z,38.58
2023-05-09T14:44:31.987Z,38.44
2023-05-09T14:47:17.186Z,39.31
2023-05-09T14:50:02.445Z,39.13
2023-05-09T14:52:49.108Z,40.62
2023-05-09T14:55:34.590Z,40.07
2023-05-09T14:58:21.556Z,41.05
2023-05-09T15:01:07.244Z,42.04
2023-05-09T15:03:52.672Z,41.38
2023-05-09T15:06:38.208Z,42.16
2023-05-09T15:09:23.563Z,42.29
2023-05-09T15:12:08.849Z,42.92
2023-05-09T15:14:53.953Z,42.74
2023-05-09T15:17:39.300Z,43.80
2023-05-09T15:20:24.825Z,43.75
2023-05-09T15:23:12.091Z,42.55
2023-05-09T15:25:57.450Z,42.72
2023-05-09T15:28:43.176Z,43.54
2023-05-09T15:31:32.942Z,41.28
2023-05-09T15:34:18.557Z,42.17
2023-05-09T15:37:04.002Z,42.56
2023-05-09T15:39:49.931Z,43.57
2023-05-09T15:42:36.069Z,41.18
2023-05-09T15:45:21.231Z,41.34
2023-05-09T15:48:06.539Z,42.26
2023-05-09T15:50:53.202Z,41.96
2023-05-09T15:53:38.642Z,40.47
2023-05-09T15:56:24.302Z,41.88
2023-05-09T15:59:09.729Z,42.38
2023-05-09T16:01:55.822Z,43.15
2023-05-09T16:04:41.427Z,42.30
2023-05-09T16:07:26.863Z,41.97
2023-05-09T16:10:13.587Z,39.87
2023-05-09T16:12:59.069Z,42.15
2023-05-09T16:15:44.645Z,41.58
2023-05-09T16:18:30.202Z,42.44
2023-05-09T16:21:16.993Z,42.34
2023-05-09T16:24:02.712Z,44.07
2023-05-09T16:26:48.353Z,44.55
2023-05-09T16:29:34.032Z,42.12
2023-05-09T16:32:19.300Z,43.85
2023-05-09T16:35:05.840Z,42.98
2023-05-09T16:37:51.060Z,41.85
2023-05-09T16:40:36.889Z,40.90
2023-05-09T16:43:22.424Z,40.72
2023-05-09T16:46:08.700Z,40.66
2023-05-09T16:48:55.228Z,40.91
2023-05-09T16:51:41.860Z,41.58
2023-05-09T16:54:27.162Z,43.51
2023-05-09T16:57:13.326Z,43.69
2023-05-09T17:00:00.503Z,45.31
2023-05-09T17:02:45.907Z,45.91
2023-05-09T17:05:31.925Z,46.20
2023-05-09T17:08:17.550Z,45.24
2023-05-09T17:11:02.903Z,45.29
2023-05-09T17:13:48.363Z,46.06
2023-05-09T17:16:35.298Z,46.36
2023-05-09T17:19:23.289Z,46.92
2023-05-09T17:22:09.233Z,47.48
2023-05-09T17:24:54.908Z,46.20
2023-05-09T17:27:40.295Z,46.07
2023-05-09T17:30:27.352Z,45.51
2023-05-09T17:33:15.717Z,44.95
2023-05-09T17:36:01.114Z,44.50
2023-05-09T17:38:46.430Z,44.92
2023-05-09T17:41:31.984Z,43.89
2023-05-09T17:44:17.936Z,47.32
2023-05-09T17:47:03.640Z,44.43
2023-05-09T17:49:48.800Z,46.42
2023-05-09T17:52:34.570Z,48.13
2023-05-09T17:55:20.388Z,48.18
2023-05-09T17:58:06.054Z,49.14
2023-05-09T18:00:54.216Z,51.70
2023-05-09T18:03:39.617Z,52.58
2023-05-09T18:06:25.220Z,52.76
2023-05-09T18:09:11.151Z,50.47
2023-05-09T18:11:56.592Z,53.02
2023-05-09T18:14:42.289Z,53.87
2023-05-09T18:17:27.496Z,54.50
2023-05-09T18:20:13.230Z,54.43
2023-05-09T18:22:58.725Z,56.51
2023-05-09T18:25:43.924Z,52.29
2023-05-09T18:28:29.684Z,43.85
2023-05-09T18:31:15.577Z,46.53
2023-05-09T18:34:01.468Z,48.32
2023-05-09T18:36:47.603Z,43.90
2023-05-09T18:39:32.954Z,43.85
2023-05-09T18:42:18.929Z,47.03
2023-05-09T18:45:05.311Z,49.31
2023-05-09T18:47:50.842Z,50.52
2023-05-09T18:50:36.335Z,50.81
2023-05-09T18:53:22.143Z,50.76
2023-05-09T18:56:07.525Z,51.22
2023-05-09T18:58:53.228Z,50.60
2023-05-09T19:01:38.241Z,49.28
2023-05-09T19:04:24.613Z,46.08
2023-05-09T19:07:10.458Z,47.31
2023-05-09T19:09:56.221Z,47.35
2023-05-09T19:12:42.111Z,49.57
2023-05-09T19:15:27.865Z,50.54
2023-05-09T19:18:13.610Z,54.59
2023-05-09T19:21:00.051Z,56.20
2023-05-09T19:23:45.601Z,57.53
2023-05-09T19:29:19.153Z,57.85
2023-05-09T19:32:04.883Z,56.55
2023-05-09T19:34:50.540Z,55.80
2023-05-09T19:37:36.891Z,57.09
2023-05-09T19:40:23.087Z,59.38
2023-05-09T19:43:08.785Z,58.32
2023-05-09T19:45:54.763Z,58.88
2023-05-09T19:48:40.620Z,58.76
2023-05-09T19:51:25.821Z,59.66
2023-05-09T19:54:11.570Z,62.26
2023-05-09T19:56:56.940Z,56.97
2023-05-09T19:59:42.247Z,53.30
2023-05-09T20:02:28.109Z,50.54
2023-05-09T20:05:13.358Z,49.51
2023-05-09T20:07:58.899Z,49.21
2023-05-09T20:10:44.027Z,48.92
2023-05-09T20:13:29.482Z,49.11
2023-05-09T20:16:15.174Z,49.02
2023-05-09T20:19:00.784Z,48.46
2023-05-09T20:21:46.141Z,47.89
2023-05-09T20:24:31.726Z,48.02
2023-05-09T20:27:17.287Z,48.31
2023-05-09T20:30:05.821Z,49.51
2023-05-09T20:32:51.234Z,51.26
2023-05-09T20:35:36.388Z,51.96
2023-05-09T20:38:21.746Z,51.50
2023-05-09T20:41:07.409Z,51.12
2023-05-09T20:43:52.989Z,50.55
2023-05-09T20:46:38.480Z,49.81
2023-05-09T20:49:23.984Z,49.77
2023-05-09T20:52:09.955Z,49.14
2023-05-09T20:54:55.217Z,48.67
2023-05-09T20:57:40.542Z,48.93
2023-05-09T21:00:25.869Z,48.78
2023-05-09T21:03:11.467Z,46.63
2023-05-09T21:05:58.194Z,47.63
2023-05-09T21:08:43.500Z,48.67
2023-05-09T21:11:28.889Z,48.27
2023-05-09T21:14:14.164Z,48.77
2023-05-09T21:16:59.689Z,49.00
2023-05-09T21:19:45.193Z,48.83
2023-05-09T21:22:30.483Z,49.15
2023-05-09T21:25:16.009Z,49.47
2023-05-09T21:28:01.711Z,49.42
2023-05-09T21:30:53.729Z,49.60
2023-05-09T21:33:39.328Z,50.24
2023-05-09T21:36:25.315Z,50.30
2023-05-09T21:39:10.896Z,51.14
2023-05-09T21:41:56.826Z,52.03
2023-05-09T21:44:42.121Z,51.97
2023-05-09T21:47:27.526Z,53.92
2023-05-09T21:50:13.035Z,54.72
2023-05-09T21:52:59.976Z,54.85
2023-05-09T21:55:45.242Z,53.89
2023-05-09T21:58:30.320Z,52.07
2023-05-09T22:01:17.968Z,51.20
2023-05-09T22:04:04.913Z,50.56
2023-05-09T22:06:50.314Z,49.10
2023-05-09T22:09:35.882Z,49.24
2023-05-09T22:12:21.494Z,50.22
2023-05-09T22:15:07.535Z,50.36
2023-05-09T22:17:52.963Z,49.82
2023-05-09T22:20:38.781Z,49.23
2023-05-09T22:23:24.443Z,48.05
2023-05-09T22:26:09.710Z,48.81
2023-05-09T22:28:55.287Z,48.07
2023-05-09T22:31:41.174Z,49.10
2023-05-09T22:34:26.506Z,50.88
2023-05-09T22:37:11.954Z,52.29
2023-05-09T22:39:57.096Z,52.82
2023-05-09T22:42:42.722Z,51.97
2023-05-09T22:45:53.959Z,52.96
2023-05-09T22:48:39.490Z,54.02
2023-05-09T22:51:25.193Z,54.74
2023-05-09T22:54:10.866Z,55.58
2023-05-09T22:56:56.225Z,56.37
2023-05-09T22:59:41.850Z,55.97
2023-05-09T23:02:27.102Z,56.13
2023-05-09T23:05:12.543Z,53.68
2023-05-09T23:07:57.899Z,54.08
2023-05-09T23:10:44.017Z,53.74
2023-05-09T23:13:29.585Z,52.63
2023-05-09T23:16:15.224Z,50.35
2023-05-09T23:19:00.885Z,50.03
2023-05-09T23:21:46.162Z,52.17
2023-05-09T23:24:31.614Z,51.66
2023-05-09T23:27:16.844Z,51.94
2023-05-09T23:30:02.267Z,52.13
2023-05-09T23:32:47.543Z,53.23
2023-05-09T23:35:32.724Z,53.11
2023-05-09T23:38:18.145Z,53.78
2023-05-09T23:41:03.593Z,53.48
2023-05-09T23:43:49.674Z,53.08
2023-05-09T23:46:35.142Z,52.71
2023-05-09T23:49:20.617Z,52.24
2023-05-09T23:52:05.817Z,52.59
2023-05-09T23:54:50.905Z,52.87
2023-05-09T23:57:36.212Z,52.64
